Time;durP1;ratioP1;P1;durP2;ratioP2;P2;SDS_P1;SDS_P2;PMS_P1;PMS_P2;Temp;Humidity;BMP_temperature;BMP_pressure;BME280_temperature;BME280_humidity;BME280_pressure;Samples;Min_cycle;Max_cycle;Signal;HPM_P1;HPM_P2
2021/12/24 00:00:47;;;;;;;;;;;23.50;99.90;;;;;;5054801;28;20007;-76
2021/12/24 00:03:14;;;;;;;;;;;23.40;99.90;;;;;;5055006;28;19920;-78
2021/12/24 00:05:41;;;;;;;;;;;23.40;99.90;;;;;;5055005;28;20417;-77
2021/12/24 00:08:08;;;;;;;;;;;23.40;99.90;;;;;;5054769;28;20016;-77
2021/12/24 00:10:35;;;;;;;;;;;23.50;99.90;;;;;;5054714;28;19928;-76
2021/12/24 00:13:07;;;;;;;;;;;23.60;99.90;;;;;;5054798;28;19963;-76
2021/12/24 00:18:16;;;;;;;;;;;23.50;99.90;;;;;;5054068;28;19913;-76
2021/12/24 00:36:40;;;;;;;;;;;23.10;99.90;;;;;;5054252;28;19916;-77
2021/12/24 00:39:07;;;;;;;;;;;23.10;99.90;;;;;;5054180;28;19913;-77
2021/12/24 00:41:33;;;;;;;;;;;23.00;99.90;;;;;;5054331;28;19913;-76
2021/12/24 00:44:00;;;;;;;;;;;23.00;99.90;;;;;;5053890;28;19909;-77
2021/12/24 00:46:27;;;;;;;;;;;23.00;99.90;;;;;;5053985;28;20055;-78
2021/12/24 00:48:55;;;;;;;;;;;23.00;99.90;;;;;;5054076;28;19924;-77
2021/12/24 00:52:07;;;;;;;;;;;23.00;99.90;;;;;;5054116;28;19924;-77
2021/12/24 00:56:56;;;;;;;;;;;23.00;99.90;;;;;;5054269;28;19916;-77
2021/12/24 00:59:23;;;;;;;;;;;23.00;99.90;;;;;;5054318;28;19913;-76
2021/12/24 01:01:49;;;;;;;;;;;23.10;99.90;;;;;;5053753;28;19999;-76
2021/12/24 01:04:16;;;;;;;;;;;23.10;99.90;;;;;;5053937;28;19909;-78
2021/12/24 01:06:44;;;;;;;;;;;23.20;99.90;;;;;;5053991;28;19924;-77
2021/12/24 01:09:10;;;;;;;;;;;23.20;99.90;;;;;;5053733;28;19972;-77
2021/12/24 01:11:37;;;;;;;;;;;23.30;99.90;;;;;;5053701;28;20027;-77
2021/12/24 01:14:04;;;;;;;;;;;23.40;99.90;;;;;;5053477;28;20317;-78
2021/12/24 01:16:38;;;;;;;;;;;23.30;99.90;;;;;;5053829;28;20002;-76
2021/12/24 01:19:11;;;;;;;;;;;23.40;99.90;;;;;;5053572;28;19908;-75
2021/12/24 01:24:09;;;;;;;;;;;23.50;99.90;;;;;;5053237;28;19909;-77
2021/12/24 01:29:39;;;;;;;;;;;23.50;99.90;;;;;;5053317;28;19920;-76
2021/12/24 01:37:52;;;;;;;;;;;23.80;99.90;;;;;;5053322;28;20002;-76
2021/12/24 01:40:26;;;;;;;;;;;24.30;99.90;;;;;;5052757;28;20412;-74
2021/12/24 01:42:53;;;;;;;;;;;24.80;99.90;;;;;;5053016;28;19954;-76
2021/12/24 01:45:23;;;;;;;;;;;25.00;99.90;;;;;;5053004;28;20401;-77
2021/12/24 01:47:51;;;;;;;;;;;24.90;99.90;;;;;;5052191;28;19909;-77
2021/12/24 01:50:18;;;;;;;;;;;25.00;99.90;;;;;;5050461;28;19912;-76
2021/12/24 01:52:48;;;;;;;;;;;25.20;99.90;;;;;;5050827;28;19916;-77
2021/12/24 01:55:14;;;;;;;;;;;25.20;99.90;;;;;;5050796;28;19916;-77
2021/12/24 01:57:42;;;;;;;;;;;25.30;99.90;;;;;;5050861;28;19909;-77
2021/12/24 02:00:10;;;;;;;;;;;25.30;99.90;;;;;;5050355;28;19913;-77
2021/12/24 02:02:37;;;;;;;;;;;25.30;99.90;;;;;;5050112;28;19908;-77
2021/12/24 02:05:03;;;;;;;;;;;25.20;99.90;;;;;;5050548;28;20007;-76
2021/12/24 02:07:30;;;;;;;;;;;25.10;99.90;;;;;;5050627;28;20067;-75
2021/12/24 02:09:57;;;;;;;;;;;25.20;99.90;;;;;;5050110;28;19978;-77
2021/12/24 02:12:25;;;;;;;;;;;25.20;99.90;;;;;;5050508;28;19921;-77
2021/12/24 02:14:55;;;;;;;;;;;25.10;99.90;;;;;;5050055;28;19913;-76
2021/12/24 02:28:27;;;;;;;;;;;25.20;99.90;;;;;;5050360;28;19955;-77
2021/12/24 02:30:54;;;;;;;;;;;25.50;99.90;;;;;;5082453;28;19909;-78
2021/12/24 02:33:21;;;;;;;;;;;25.40;99.90;;;;;;5049944;28;20326;-77
2021/12/24 02:35:48;;;;;;;;;;;25.50;99.90;;;;;;5050073;28;20310;-77
2021/12/24 02:38:15;;;;;;;;;;;25.40;99.90;;;;;;5082479;28;20360;-77
2021/12/24 02:40:41;;;;;;;;;;;25.50;99.90;;;;;;5056044;28;19956;-78
2021/12/24 02:43:13;;;;;;;;;;;25.60;99.90;;;;;;5056840;28;19913;-77
2021/12/24 02:45:42;;;;;;;;;;;25.70;99.90;;;;;;5056689;28;19909;-76
2021/12/24 02:56:25;;;;;;;;;;;25.10;99.90;;;;;;5056798;28;19967;-77
2021/12/24 02:58:52;;;;;;;;;;;24.90;99.90;;;;;;5056837;28;20008;-78
2021/12/24 03:01:22;;;;;;;;;;;24.90;99.90;;;;;;5056639;28;19909;-79
2021/12/24 03:03:48;;;;;;;;;;;25.00;99.90;;;;;;5055799;28;19915;-78
2021/12/24 03:06:16;;;;;;;;;;;25.00;99.90;;;;;;5056738;28;20389;-78
2021/12/24 03:08:42;;;;;;;;;;;25.00;99.90;;;;;;5088492;28;19909;-73
2021/12/24 03:11:09;;;;;;;;;;;25.00;99.90;;;;;;5056074;28;19972;-78
2021/12/24 03:13:37;;;;;;;;;;;25.30;99.90;;;;;;5056738;28;19913;-77
2021/12/24 03:16:04;;;;;;;;;;;25.50;99.90;;;;;;5056355;28;20294;-78
2021/12/24 03:18:34;;;;;;;;;;;25.60;99.90;;;;;;5056526;28;20001;-76
2021/12/24 03:21:13;;;;;;;;;;;25.70;99.90;;;;;;5056313;28;19909;-74
2021/12/24 03:23:46;;;;;;;;;;;25.90;99.90;;;;;;5056706;28;19970;-75
2021/12/24 03:26:14;;;;;;;;;;;25.80;99.90;;;;;;5056655;28;19924;-75
2021/12/24 03:28:41;;;;;;;;;;;25.80;99.90;;;;;;5056510;28;19909;-78
2021/12/24 03:31:09;;;;;;;;;;;25.80;99.90;;;;;;5056255;28;19920;-77
2021/12/24 03:33:37;;;;;;;;;;;25.90;99.90;;;;;;5088266;28;20264;-79
2021/12/24 03:36:05;;;;;;;;;;;25.90;99.90;;;;;;5056498;28;20356;-77
2021/12/24 03:38:33;;;;;;;;;;;25.80;99.90;;;;;;5056497;28;20310;-78
2021/12/24 03:41:00;;;;;;;;;;;25.70;99.90;;;;;;5056512;28;20007;-78
2021/12/24 03:43:26;;;;;;;;;;;25.70;99.90;;;;;;5056535;28;19908;-76
2021/12/24 03:48:26;;;;;;;;;;;25.60;99.90;;;;;;5056435;28;19913;-77
2021/12/24 03:51:05;;;;;;;;;;;25.40;99.90;;;;;;5055203;28;19951;-76
2021/12/24 03:56:16;;;;;;;;;;;25.40;99.90;;;;;;5053433;28;19919;-78
2021/12/24 03:58:43;;;;;;;;;;;25.50;99.90;;;;;;5053318;28;19917;-79
2021/12/24 04:01:10;;;;;;;;;;;25.60;99.90;;;;;;5052972;28;19958;-78
2021/12/24 04:03:37;;;;;;;;;;;25.50;99.90;;;;;;5053079;28;19969;-77
2021/12/24 04:06:04;;;;;;;;;;;25.50;99.90;;;;;;5052619;28;19912;-77
2021/12/24 04:08:31;;;;;;;;;;;25.40;99.90;;;;;;5053129;28;19909;-77
2021/12/24 04:10:57;;;;;;;;;;;25.40;99.90;;;;;;5052762;28;20394;-78
2021/12/24 04:13:24;;;;;;;;;;;25.50;99.90;;;;;;5052562;28;19913;-77
2021/12/24 04:15:50;;;;;;;;;;;25.50;99.90;;;;;;5052299;28;19923;-77
2021/12/24 04:18:24;;;;;;;;;;;25.30;99.90;;;;;;5052631;28;20379;-79
2021/12/24 04:26:20;;;;;;;;;;;25.30;99.90;;;;;;5053637;28;20405;-78
2021/12/24 04:28:47;;;;;;;;;;;25.30;99.90;;;;;;5051613;28;19913;-78
2021/12/24 04:31:14;;;;;;;;;;;25.20;99.90;;;;;;5052822;28;19928;-79
2021/12/24 04:33:46;;;;;;;;;;;25.20;99.90;;;;;;5052367;28;19935;-77
2021/12/24 05:03:13;;;;;;;;;;;25.10;99.90;;;;;;5051802;28;19939;-78
2021/12/24 05:05:50;;;;;;;;;;;25.10;99.90;;;;;;5051727;28;19909;-79
2021/12/24 05:08:22;;;;;;;;;;;25.30;99.90;;;;;;5051867;28;20287;-78
2021/12/24 05:10:49;;;;;;;;;;;25.40;99.90;;;;;;5051397;28;20260;-78
2021/12/24 05:13:16;;;;;;;;;;;25.30;99.90;;;;;;5051690;28;19952;-79
2021/12/24 05:15:44;;;;;;;;;;;25.40;99.90;;;;;;5051715;28;19912;-79
2021/12/24 05:18:37;;;;;;;;;;;25.30;99.90;;;;;;5051185;28;19919;-79
2021/12/24 05:23:48;;;;;;;;;;;25.00;99.90;;;;;;5051354;28;20014;-74
2021/12/24 05:26:15;;;;;;;;;;;25.20;99.90;;;;;;5051448;28;20322;-74
2021/12/24 05:28:42;;;;;;;;;;;25.20;99.90;;;;;;5051283;28;19959;-73
2021/12/24 05:31:08;;;;;;;;;;;25.20;99.90;;;;;;5050939;28;20390;-73
2021/12/24 05:33:35;;;;;;;;;;;25.10;99.90;;;;;;5051259;28;20394;-73
2021/12/24 05:36:02;;;;;;;;;;;25.10;99.90;;;;;;5050938;28;19916;-74
2021/12/24 05:38:30;;;;;;;;;;;25.30;99.90;;;;;;5051030;28;19915;-73
2021/12/24 05:40:57;;;;;;;;;;;25.30;99.90;;;;;;5051094;28;19913;-73
2021/12/24 05:43:26;;;;;;;;;;;25.30;99.90;;;;;;5051022;28;20363;-73
2021/12/24 05:45:52;;;;;;;;;;;25.30;99.90;;;;;;5050793;28;19909;-73
2021/12/24 05:48:19;;;;;;;;;;;25.20;99.90;;;;;;5051059;28;19919;-74
2021/12/24 05:50:46;;;;;;;;;;;25.10;99.90;;;;;;5051059;28;19952;-72
2021/12/24 05:53:12;;;;;;;;;;;25.10;99.90;;;;;;5051011;28;19963;-72
2021/12/24 05:55:39;;;;;;;;;;;25.10;99.90;;;;;;5050911;28;20007;-73
2021/12/24 05:58:07;;;;;;;;;;;25.00;99.90;;;;;;5050306;28;20011;-74
2021/12/24 06:00:39;;;;;;;;;;;25.00;99.90;;;;;;5050648;28;19909;-72
2021/12/24 06:03:06;;;;;;;;;;;25.00;99.90;;;;;;5050634;28;20343;-73
2021/12/24 06:05:36;;;;;;;;;;;25.00;99.90;;;;;;5050762;28;19912;-74
2021/12/24 06:08:04;;;;;;;;;;;24.90;99.90;;;;;;5050556;28;19917;-72
2021/12/24 06:10:31;;;;;;;;;;;24.80;99.90;;;;;;5049955;28;20015;-73
2021/12/24 06:12:58;;;;;;;;;;;24.80;99.90;;;;;;5050498;28;20012;-74
2021/12/24 06:15:26;;;;;;;;;;;24.80;99.90;;;;;;5049656;28;20378;-72
2021/12/24 06:17:55;;;;;;;;;;;24.80;99.90;;;;;;5050583;28;20062;-73
2021/12/24 06:20:24;;;;;;;;;;;24.70;99.90;;;;;;5050720;28;19940;-73
2021/12/24 06:22:51;;;;;;;;;;;24.70;99.90;;;;;;5050339;28;19920;-73
2021/12/24 06:25:18;;;;;;;;;;;24.60;99.90;;;;;;5050469;28;19917;-73
2021/12/24 06:27:48;;;;;;;;;;;24.60;99.90;;;;;;5050687;28;20363;-73
2021/12/24 06:30:15;;;;;;;;;;;24.60;99.90;;;;;;5050107;28;19912;-73
2021/12/24 06:32:42;;;;;;;;;;;24.80;99.90;;;;;;5048739;28;20386;-72
2021/12/24 06:35:09;;;;;;;;;;;24.70;99.90;;;;;;5050271;28;20402;-75
2021/12/24 06:37:37;;;;;;;;;;;24.50;99.90;;;;;;5050100;28;19928;-73
2021/12/24 06:40:04;;;;;;;;;;;24.50;99.90;;;;;;5050043;28;19917;-73
2021/12/24 06:42:30;;;;;;;;;;;24.60;99.90;;;;;;5050254;28;20375;-72
2021/12/24 06:44:57;;;;;;;;;;;24.50;99.90;;;;;;5050248;28;19960;-73
2021/12/24 06:47:24;;;;;;;;;;;24.50;99.90;;;;;;5050471;28;19912;-73
2021/12/24 06:49:50;;;;;;;;;;;24.60;99.90;;;;;;5049693;28;19916;-73
2021/12/24 06:52:17;;;;;;;;;;;24.60;99.90;;;;;;5050158;28;19927;-75
2021/12/24 06:54:44;;;;;;;;;;;24.70;99.90;;;;;;5050133;28;20387;-72
2021/12/24 06:57:15;;;;;;;;;;;24.70;99.90;;;;;;5050130;28;19909;-73
2021/12/24 06:59:42;;;;;;;;;;;24.60;99.90;;;;;;5049979;28;19948;-72
2021/12/24 07:02:09;;;;;;;;;;;24.50;99.90;;;;;;5049583;28;19916;-73
2021/12/24 07:04:35;;;;;;;;;;;24.50;99.90;;;;;;5050240;28;20000;-72
2021/12/24 07:07:02;;;;;;;;;;;24.50;99.90;;;;;;5050067;28;19909;-76
2021/12/24 07:09:29;;;;;;;;;;;24.40;99.90;;;;;;5050001;28;19956;-73
2021/12/24 07:11:55;;;;;;;;;;;24.40;99.90;;;;;;5049929;28;20326;-72
2021/12/24 07:14:23;;;;;;;;;;;24.30;99.90;;;;;;5049836;28;19947;-74
2021/12/24 07:16:50;;;;;;;;;;;24.30;99.90;;;;;;5049569;28;19909;-73
2021/12/24 07:19:17;;;;;;;;;;;24.30;99.90;;;;;;5049974;28;19956;-73
2021/12/24 07:21:44;;;;;;;;;;;24.30;99.90;;;;;;5049891;28;19966;-73
2021/12/24 07:24:10;;;;;;;;;;;24.30;99.90;;;;;;5049736;28;20290;-73
2021/12/24 07:26:37;;;;;;;;;;;24.20;99.90;;;;;;5052497;28;19920;-75
2021/12/24 07:29:04;;;;;;;;;;;24.10;99.90;;;;;;5053329;28;19917;-73
2021/12/24 07:31:30;;;;;;;;;;;24.00;99.90;;;;;;5053694;28;19971;-73
2021/12/24 07:33:57;;;;;;;;;;;24.10;99.90;;;;;;5053512;28;20387;-72
2021/12/24 07:36:24;;;;;;;;;;;24.10;99.90;;;;;;5053597;28;19913;-73
2021/12/24 07:38:50;;;;;;;;;;;24.00;99.90;;;;;;5053430;28;20359;-73
2021/12/24 07:41:18;;;;;;;;;;;24.00;99.90;;;;;;5053146;28;19967;-72
2021/12/24 07:43:45;;;;;;;;;;;24.00;99.90;;;;;;5053261;28;19909;-73
2021/12/24 07:46:11;;;;;;;;;;;24.00;99.90;;;;;;5053380;28;20407;-73
2021/12/24 07:48:47;;;;;;;;;;;24.00;99.90;;;;;;5053575;28;20386;-73
2021/12/24 07:54:00;;;;;;;;;;;23.90;99.90;;;;;;5053257;28;19916;-73
2021/12/24 07:56:30;;;;;;;;;;;23.90;99.90;;;;;;5052934;28;19909;-73
2021/12/24 07:58:58;;;;;;;;;;;23.90;99.90;;;;;;5052991;28;19991;-72
2021/12/24 08:01:25;;;;;;;;;;;24.00;99.90;;;;;;5053102;28;19954;-74
2021/12/24 08:03:55;;;;;;;;;;;24.00;99.90;;;;;;5052734;28;19908;-72
2021/12/24 08:06:25;;;;;;;;;;;24.00;99.90;;;;;;5054419;28;19909;-74
2021/12/24 08:08:52;;;;;;;;;;;24.00;99.90;;;;;;5055332;28;19916;-73
2021/12/24 08:11:19;;;;;;;;;;;24.00;99.90;;;;;;5054751;28;19924;-73
2021/12/24 08:13:45;;;;;;;;;;;24.00;99.90;;;;;;5054645;28;19951;-73
2021/12/24 08:16:13;;;;;;;;;;;24.00;99.90;;;;;;5055048;28;20383;-75
2021/12/24 08:18:43;;;;;;;;;;;24.00;99.90;;;;;;5054995;28;19916;-75
2021/12/24 08:21:10;;;;;;;;;;;24.00;99.90;;;;;;5054782;28;19909;-74
2021/12/24 08:23:36;;;;;;;;;;;23.90;99.90;;;;;;5054654;28;19913;-72
2021/12/24 08:26:03;;;;;;;;;;;23.90;99.90;;;;;;5054538;28;19909;-74
2021/12/24 08:28:30;;;;;;;;;;;23.90;99.90;;;;;;5054529;28;19909;-72
2021/12/24 08:30:56;;;;;;;;;;;23.90;99.90;;;;;;5054447;28;19990;-72
2021/12/24 08:33:23;;;;;;;;;;;23.90;99.90;;;;;;5054547;28;19909;-74
2021/12/24 08:35:50;;;;;;;;;;;23.90;99.90;;;;;;5054298;28;19941;-73
2021/12/24 08:38:17;;;;;;;;;;;23.80;99.90;;;;;;5053669;28;19909;-73
2021/12/24 08:40:44;;;;;;;;;;;23.80;99.90;;;;;;5054565;28;19908;-74
2021/12/24 08:43:11;;;;;;;;;;;23.70;99.90;;;;;;5054258;28;20355;-73
2021/12/24 08:45:37;;;;;;;;;;;23.70;99.90;;;;;;5054376;28;19962;-74
2021/12/24 08:48:04;;;;;;;;;;;23.70;99.90;;;;;;5054097;28;19909;-73
2021/12/24 08:50:31;;;;;;;;;;;23.60;99.90;;;;;;5054306;28;19916;-73
2021/12/24 08:52:57;;;;;;;;;;;23.60;99.90;;;;;;5054167;28;19963;-72
2021/12/24 08:55:24;;;;;;;;;;;23.60;99.90;;;;;;5052852;28;19955;-73
2021/12/24 08:57:51;;;;;;;;;;;23.60;99.90;;;;;;5053903;28;20287;-73
2021/12/24 09:00:20;;;;;;;;;;;23.70;99.90;;;;;;5054138;28;20021;-73
2021/12/24 09:02:47;;;;;;;;;;;23.60;99.90;;;;;;5054016;28;19954;-78
2021/12/24 09:05:14;;;;;;;;;;;23.60;99.90;;;;;;5054032;28;19913;-72
2021/12/24 09:07:41;;;;;;;;;;;23.60;99.90;;;;;;5053820;28;19932;-74
2021/12/24 09:10:09;;;;;;;;;;;23.60;99.90;;;;;;5085648;28;19971;-72
2021/12/24 09:12:36;;;;;;;;;;;23.60;99.90;;;;;;5053635;28;19917;-75
2021/12/24 09:15:04;;;;;;;;;;;23.50;99.90;;;;;;5053913;28;19909;-73
2021/12/24 09:17:31;;;;;;;;;;;23.50;99.90;;;;;;5053877;28;19954;-73
2021/12/24 09:19:58;;;;;;;;;;;23.50;99.90;;;;;;5053287;28;19948;-73
2021/12/24 09:22:31;;;;;;;;;;;23.50;99.90;;;;;;5053877;28;20356;-72
2021/12/24 09:24:58;;;;;;;;;;;23.50;99.90;;;;;;5053595;28;20212;-74
2021/12/24 09:27:25;;;;;;;;;;;23.40;99.90;;;;;;5053541;28;19908;-74
2021/12/24 09:29:51;;;;;;;;;;;23.40;99.90;;;;;;5053370;28;20007;-73
2021/12/24 09:32:18;;;;;;;;;;;23.40;99.90;;;;;;5053298;28;19917;-73
2021/12/24 09:34:45;;;;;;;;;;;23.40;99.90;;;;;;5053382;28;19912;-73
2021/12/24 09:37:12;;;;;;;;;;;23.40;99.90;;;;;;5053350;28;19918;-73
2021/12/24 09:39:38;;;;;;;;;;;23.40;99.90;;;;;;5085411;28;19991;-73
2021/12/24 09:42:05;;;;;;;;;;;23.40;99.90;;;;;;5053155;28;19913;-73
2021/12/24 09:44:32;;;;;;;;;;;23.40;99.90;;;;;;5053136;28;19908;-72
2021/12/24 09:46:58;;;;;;;;;;;23.30;99.90;;;;;;5053236;28;19916;-72
2021/12/24 09:49:25;;;;;;;;;;;23.30;99.90;;;;;;5053155;28;19909;-73
2021/12/24 09:51:52;;;;;;;;;;;23.30;99.90;;;;;;5052768;28;19924;-73
2021/12/24 09:54:21;;;;;;;;;;;23.30;99.90;;;;;;5052963;28;19961;-76
2021/12/24 09:56:48;;;;;;;;;;;23.20;99.90;;;;;;5053039;28;20406;-73
2021/12/24 09:59:15;;;;;;;;;;;23.30;99.90;;;;;;5052823;28;19916;-74
2021/12/24 10:01:43;;;;;;;;;;;23.20;99.90;;;;;;5052864;28;20339;-72
2021/12/24 10:04:11;;;;;;;;;;;23.20;99.90;;;;;;5052613;28;19909;-72
2021/12/24 10:06:40;;;;;;;;;;;23.20;99.90;;;;;;5052710;28;20046;-72
2021/12/24 10:09:12;;;;;;;;;;;23.20;99.90;;;;;;5052749;28;19909;-73
2021/12/24 10:11:55;;;;;;;;;;;23.20;99.90;;;;;;5052701;28;19921;-72
2021/12/24 10:14:28;;;;;;;;;;;23.20;99.90;;;;;;5052758;28;19959;-73
2021/12/24 10:16:55;;;;;;;;;;;23.20;99.90;;;;;;5052774;28;19916;-74
2021/12/24 10:19:22;;;;;;;;;;;23.30;99.90;;;;;;5052711;28;19931;-73
2021/12/24 10:21:57;;;;;;;;;;;23.20;99.90;;;;;;5052426;28;20252;-73
2021/12/24 10:24:26;;;;;;;;;;;23.20;99.90;;;;;;5052639;28;19938;-72
2021/12/24 10:26:54;;;;;;;;;;;23.20;99.90;;;;;;5052546;28;19909;-72
2021/12/24 10:29:27;;;;;;;;;;;23.20;99.90;;;;;;5052422;28;19956;-72
2021/12/24 10:31:56;;;;;;;;;;;23.20;99.90;;;;;;5052284;28;20006;-78
2021/12/24 10:34:30;;;;;;;;;;;23.20;99.90;;;;;;5052539;28;20000;-72
2021/12/24 10:37:08;;;;;;;;;;;23.20;99.90;;;;;;5052516;28;19952;-72
2021/12/24 10:39:37;;;;;;;;;;;23.20;99.90;;;;;;5052633;28;19924;-73
2021/12/24 10:42:09;;;;;;;;;;;23.20;99.90;;;;;;5052029;28;19913;-72
2021/12/24 10:44:38;;;;;;;;;;;23.20;99.90;;;;;;5052551;28;19935;-72
2021/12/24 10:47:13;;;;;;;;;;;23.20;99.90;;;;;;5052389;28;20291;-74
2021/12/24 10:52:15;;;;;;;;;;;23.20;99.90;;;;;;5052193;28;19916;-72
2021/12/24 10:54:53;;;;;;;;;;;23.20;99.90;;;;;;5052393;28;19995;-72
2021/12/24 10:57:23;;;;;;;;;;;23.30;99.90;;;;;;5052161;28;19909;-72
2021/12/24 10:59:51;;;;;;;;;;;23.30;99.90;;;;;;5052252;28;19916;-73
2021/12/24 11:02:18;;;;;;;;;;;23.30;99.90;;;;;;5056183;28;19913;-74
2021/12/24 11:04:46;;;;;;;;;;;23.30;99.90;;;;;;5056413;28;19916;-75
2021/12/24 11:07:31;;;;;;;;;;;23.30;99.90;;;;;;5056710;28;20266;-72
2021/12/24 11:10:11;;;;;;;;;;;23.30;99.90;;;;;;5055735;28;20321;-72
2021/12/24 11:12:40;;;;;;;;;;;23.40;99.90;;;;;;5055959;28;19971;-73
2021/12/24 11:15:24;;;;;;;;;;;23.30;99.90;;;;;;5056064;28;19923;-74
2021/12/24 11:17:52;;;;;;;;;;;23.40;99.90;;;;;;5055805;28;19908;-72
2021/12/24 11:20:20;;;;;;;;;;;23.40;99.90;;;;;;5056037;28;20397;-73
2021/12/24 11:22:54;;;;;;;;;;;23.30;99.90;;;;;;5056181;28;19908;-73
2021/12/24 11:25:22;;;;;;;;;;;23.40;99.90;;;;;;5055926;28;20022;-74
2021/12/24 11:27:49;;;;;;;;;;;23.30;99.90;;;;;;5055516;28;20361;-75
2021/12/24 11:30:16;;;;;;;;;;;23.30;99.90;;;;;;5055936;28;20283;-73
2021/12/24 11:32:43;;;;;;;;;;;23.30;99.90;;;;;;5055712;28;20015;-73
2021/12/24 11:35:10;;;;;;;;;;;23.30;99.90;;;;;;5055790;28;20893;-70
2021/12/24 11:37:37;;;;;;;;;;;23.30;99.90;;;;;;5055660;28;19963;-73
2021/12/24 11:40:04;;;;;;;;;;;23.30;99.90;;;;;;5055444;28;19919;-74
2021/12/24 11:42:38;;;;;;;;;;;23.30;99.90;;;;;;5055356;28;19909;-70
2021/12/24 11:45:04;;;;;;;;;;;23.30;99.90;;;;;;5087820;28;19974;-80
2021/12/24 11:47:32;;;;;;;;;;;23.20;99.90;;;;;;5055465;28;19909;-77
2021/12/24 11:49:59;;;;;;;;;;;23.20;99.90;;;;;;5055355;28;19928;-80
2021/12/24 11:52:27;;;;;;;;;;;23.20;99.90;;;;;;5055147;28;20268;-81
2021/12/24 11:54:55;;;;;;;;;;;23.20;99.90;;;;;;5055271;28;20364;-77
2021/12/24 11:57:22;;;;;;;;;;;23.30;99.90;;;;;;5055149;28;19915;-80
2021/12/24 11:59:49;;;;;;;;;;;23.30;99.90;;;;;;5055243;28;20371;-80
2021/12/24 12:02:34;;;;;;;;;;;23.30;99.90;;;;;;5055279;28;19916;-80
2021/12/24 12:05:15;;;;;;;;;;;23.30;99.90;;;;;;5055041;28;20283;-79
2021/12/24 12:07:41;;;;;;;;;;;23.30;99.90;;;;;;5055000;28;19913;-80
2021/12/24 12:10:08;;;;;;;;;;;23.40;99.90;;;;;;5054784;28;19936;-80
2021/12/24 12:12:36;;;;;;;;;;;23.40;99.90;;;;;;5053447;28;19917;-77
2021/12/24 12:15:21;;;;;;;;;;;23.40;99.90;;;;;;5055061;28;19909;-78
2021/12/24 12:17:51;;;;;;;;;;;23.40;99.90;;;;;;5054789;28;19915;-79
2021/12/24 12:20:41;;;;;;;;;;;23.40;99.90;;;;;;5054885;28;20375;-80
2021/12/24 12:23:14;;;;;;;;;;;23.40;99.90;;;;;;5054841;28;19909;-79
2021/12/24 12:25:42;;;;;;;;;;;23.30;99.90;;;;;;5054942;28;19909;-80
2021/12/24 12:28:16;;;;;;;;;;;23.30;99.90;;;;;;5054359;28;19916;-80
2021/12/24 12:30:48;;;;;;;;;;;23.30;99.90;;;;;;5054688;28;19912;-78
2021/12/24 12:33:19;;;;;;;;;;;23.30;99.90;;;;;;5054614;28;20371;-79
2021/12/24 12:35:48;;;;;;;;;;;23.30;99.90;;;;;;5054428;28;20007;-72
2021/12/24 12:38:28;;;;;;;;;;;23.20;99.90;;;;;;5054400;28;20440;-79
2021/12/24 12:41:14;;;;;;;;;;;23.20;99.90;;;;;;5054090;28;19909;-79
2021/12/24 12:43:44;;;;;;;;;;;23.10;99.90;;;;;;5054421;28;20015;-80
2021/12/24 12:46:18;;;;;;;;;;;23.00;99.90;;;;;;5054088;28;19989;-76
2021/12/24 12:48:48;;;;;;;;;;;23.00;99.90;;;;;;5054350;28;19909;-80
2021/12/24 12:51:15;;;;;;;;;;;22.90;99.90;;;;;;5054138;28;19916;-80
2021/12/24 12:53:42;;;;;;;;;;;22.80;99.90;;;;;;5054278;28;19916;-80
2021/12/24 12:56:12;;;;;;;;;;;22.80;99.90;;;;;;5053885;28;19909;-80
2021/12/24 12:58:40;;;;;;;;;;;22.80;99.90;;;;;;5054132;28;20294;-80
2021/12/24 13:01:10;;;;;;;;;;;22.90;99.90;;;;;;5054006;28;19909;-80
2021/12/24 13:03:55;;;;;;;;;;;22.80;99.90;;;;;;5053997;28;19917;-79
2021/12/24 13:06:45;;;;;;;;;;;22.80;99.90;;;;;;5054005;28;19916;-80
2021/12/24 13:09:12;;;;;;;;;;;22.80;99.90;;;;;;5053946;28;19909;-80
2021/12/24 13:11:40;;;;;;;;;;;22.80;99.90;;;;;;5053546;28;19920;-77
2021/12/24 13:14:07;;;;;;;;;;;22.70;99.90;;;;;;5053818;28;19966;-79
2021/12/24 13:16:47;;;;;;;;;;;22.70;99.90;;;;;;5053720;28;19919;-77
2021/12/24 13:24:46;;;;;;;;;;;22.60;99.90;;;;;;5053167;28;19916;-78
2021/12/24 13:27:13;;;;;;;;;;;22.60;99.90;;;;;;5053454;28;20340;-78
2021/12/24 13:29:40;;;;;;;;;;;22.60;99.90;;;;;;5053665;28;19915;-73
2021/12/24 13:32:07;;;;;;;;;;;22.60;99.90;;;;;;5053411;28;19971;-74
2021/12/24 13:34:36;;;;;;;;;;;22.60;99.90;;;;;;5053496;28;19920;-79
2021/12/24 13:37:13;;;;;;;;;;;22.60;99.90;;;;;;5053332;28;20306;-80
2021/12/24 13:39:50;;;;;;;;;;;22.60;99.90;;;;;;5053440;28;19908;-80
2021/12/24 13:42:17;;;;;;;;;;;22.50;99.90;;;;;;5053194;28;20046;-80
2021/12/24 13:44:45;;;;;;;;;;;22.50;99.90;;;;;;5053143;28;19913;-77
2021/12/24 13:47:18;;;;;;;;;;;22.50;99.90;;;;;;5053418;28;20003;-76
2021/12/24 13:50:25;;;;;;;;;;;22.50;99.90;;;;;;5053074;28;19912;-78
2021/12/24 13:55:41;;;;;;;;;;;22.50;99.90;;;;;;5052912;28;20051;-80
2021/12/24 13:58:10;;;;;;;;;;;22.50;99.90;;;;;;5052566;28;19991;-82
2021/12/24 14:00:38;;;;;;;;;;;22.40;99.90;;;;;;5052960;28;19912;-80
2021/12/24 14:03:07;;;;;;;;;;;22.40;99.90;;;;;;5052981;28;20002;-80
2021/12/24 14:05:43;;;;;;;;;;;22.50;99.90;;;;;;5052820;28;20417;-80
2021/12/24 14:08:15;;;;;;;;;;;22.40;99.90;;;;;;5052643;28;19909;-80
2021/12/24 14:10:43;;;;;;;;;;;22.40;99.90;;;;;;5052543;28;20007;-78
2021/12/24 14:13:26;;;;;;;;;;;22.40;99.90;;;;;;5052059;28;20314;-78
2021/12/24 14:18:42;;;;;;;;;;;22.40;99.90;;;;;;5052828;28;19916;-79
2021/12/24 14:24:10;;;;;;;;;;;22.40;99.90;;;;;;5052478;28;19916;-80
2021/12/24 14:26:37;;;;;;;;;;;22.40;99.90;;;;;;5052463;28;20423;-79
2021/12/24 14:29:07;;;;;;;;;;;22.30;99.90;;;;;;5052475;28;20025;-77
2021/12/24 14:31:49;;;;;;;;;;;22.30;99.90;;;;;;5052350;28;20003;-79
2021/12/24 14:34:34;;;;;;;;;;;22.40;99.90;;;;;;5052441;28;19924;-79
2021/12/24 14:37:03;;;;;;;;;;;22.30;99.90;;;;;;5052030;28;19987;-79
2021/12/24 14:39:45;;;;;;;;;;;22.30;99.90;;;;;;5052387;28;19909;-79
2021/12/24 14:42:17;;;;;;;;;;;22.30;99.90;;;;;;5052203;28;20003;-78
2021/12/24 14:44:44;;;;;;;;;;;22.30;99.90;;;;;;5052371;28;20001;-79
2021/12/24 14:47:11;;;;;;;;;;;22.30;99.90;;;;;;5052399;28;20336;-78
2021/12/24 14:49:42;;;;;;;;;;;22.30;99.90;;;;;;5052333;28;19909;-80
2021/12/24 14:52:20;;;;;;;;;;;22.30;99.90;;;;;;5084345;28;19917;-79
2021/12/24 14:55:05;;;;;;;;;;;22.30;99.90;;;;;;5052305;28;19916;-80
2021/12/24 14:57:35;;;;;;;;;;;22.30;99.90;;;;;;5084330;28;20001;-80
2021/12/24 15:00:06;;;;;;;;;;;22.30;99.90;;;;;;5052050;28;20390;-78
2021/12/24 15:02:38;;;;;;;;;;;22.30;99.90;;;;;;5052253;28;19954;-78
2021/12/24 15:05:05;;;;;;;;;;;22.20;99.90;;;;;;5052294;28;20308;-79
2021/12/24 15:07:32;;;;;;;;;;;22.20;99.90;;;;;;5052302;28;19909;-79
2021/12/24 15:10:15;;;;;;;;;;;22.30;99.90;;;;;;5051760;28;19917;-77
2021/12/24 15:12:49;;;;;;;;;;;22.30;99.90;;;;;;5052086;28;19921;-79
2021/12/24 15:15:16;;;;;;;;;;;22.30;99.90;;;;;;5052045;28;20382;-81
2021/12/24 15:17:44;;;;;;;;;;;22.20;99.90;;;;;;5052144;28;20351;-80
2021/12/24 15:20:11;;;;;;;;;;;22.20;99.90;;;;;;5052086;28;19909;-80
2021/12/24 15:22:38;;;;;;;;;;;22.20;99.90;;;;;;5052050;28;19916;-79
2021/12/24 15:25:06;;;;;;;;;;;22.20;99.90;;;;;;5051939;28;20378;-81
2021/12/24 15:27:35;;;;;;;;;;;22.20;99.90;;;;;;5051774;28;19908;-80
2021/12/24 15:30:07;;;;;;;;;;;22.20;99.90;;;;;;5051702;28;19913;-79
2021/12/24 15:32:34;;;;;;;;;;;22.10;99.90;;;;;;5051820;28;19974;-81
2021/12/24 15:35:01;;;;;;;;;;;22.10;99.90;;;;;;5052044;28;19908;-80
2021/12/24 15:37:28;;;;;;;;;;;22.10;99.90;;;;;;5052056;28;19955;-81
2021/12/24 15:39:55;;;;;;;;;;;22.10;99.90;;;;;;5051683;28;20008;-81
2021/12/24 15:42:24;;;;;;;;;;;22.20;99.90;;;;;;5051698;28;19912;-81
2021/12/24 15:44:51;;;;;;;;;;;22.20;99.90;;;;;;5051896;28;19908;-81
2021/12/24 15:47:18;;;;;;;;;;;22.20;99.90;;;;;;5053908;28;20329;-80
2021/12/24 15:49:45;;;;;;;;;;;22.20;99.90;;;;;;5055471;28;19909;-81
2021/12/24 15:52:11;;;;;;;;;;;22.20;99.90;;;;;;5055250;28;20295;-81
2021/12/24 15:54:38;;;;;;;;;;;22.20;99.90;;;;;;5055148;28;20368;-81
2021/12/24 15:57:05;;;;;;;;;;;22.20;99.90;;;;;;5055279;28;19908;-80
2021/12/24 15:59:33;;;;;;;;;;;22.20;99.90;;;;;;5055429;28;20249;-81
2021/12/24 16:02:00;;;;;;;;;;;22.20;99.90;;;;;;5054941;28;19951;-81
2021/12/24 16:04:27;;;;;;;;;;;22.20;99.90;;;;;;5055078;28;19908;-81
2021/12/24 16:06:54;;;;;;;;;;;22.20;99.90;;;;;;5055112;28;19916;-81
2021/12/24 16:09:21;;;;;;;;;;;22.20;99.90;;;;;;5054818;28;19916;-79
2021/12/24 16:11:49;;;;;;;;;;;22.20;99.90;;;;;;5054714;28;20009;-81
2021/12/24 16:14:16;;;;;;;;;;;22.30;99.90;;;;;;5054996;28;19909;-81
2021/12/24 16:16:44;;;;;;;;;;;22.30;99.90;;;;;;5054902;28;20364;-81
2021/12/24 16:19:15;;;;;;;;;;;22.30;99.90;;;;;;5054921;28;19915;-74